sensor_id;sensor_type;location;lat;lon;timestamp;pressure;altitude;pressure_sealevel;temperature
74485;BMP280;62942;52.462;10.846;2023-01-16T00:00:13;99060;;;
74485;BMP280;62942;52.462;10.846;2023-01-16T00:01:12;99070;;;
74485;BMP280;62942;52.462;10.846;2023-01-16T00:02:22;99070;;;
74485;BMP280;62942;52.462;10.846;2023-01-16T00:03:22;99070;;;
74485;BMP280;62942;52.462;10.846;2023-01-16T00:04:22;99070;;;
74485;BMP280;62942;52.462;10.846;2023-01-16T00:05:32;99070;;;
74485;BMP280;62942;52.462;10.846;2023-01-16T00:06:42;99060;;;
74485;BMP280;62942;52.462;10.846;2023-01-16T00:07:42;99070;;;
74485;BMP280;62942;52.462;10.846;2023-01-16T00:08:42;99060;;;
74485;BMP280;62942;52.462;10.846;2023-01-16T00:09:42;99070;;;
74485;BMP280;62942;52.462;10.846;2023-01-16T00:10:52;99060;;;
74485;BMP280;62942;52.462;10.846;2023-01-16T00:11:52;99050;;;
74485;BMP280;62942;52.462;10.846;2023-01-16T00:12:52;99060;;;
74485;BMP280;62942;52.462;10.846;2023-01-16T00:14:02;99060;;;
74485;BMP280;62942;52.462;10.846;2023-01-16T00:15:12;99060;;;
74485;BMP280;62942;52.462;10.846;2023-01-16T00:16:12;99060;;;
74485;BMP280;62942;52.462;10.846;2023-01-16T00:17:22;99060;;;
74485;BMP280;62942;52.462;10.846;2023-01-16T00:18:33;99050;;;
74485;BMP280;62942;52.462;10.846;2023-01-16T00:19:32;99050;;;
74485;BMP280;62942;52.462;10.846;2023-01-16T00:20:32;99050;;;
74485;BMP280;62942;52.462;10.846;2023-01-16T00:21:34;99050;;;
74485;BMP280;62942;52.462;10.846;2023-01-16T00:22:42;99050;;;
74485;BMP280;62942;52.462;10.846;2023-01-16T00:23:42;99050;;;
74485;BMP280;62942;52.462;10.846;2023-01-16T00:24:42;99050;;;
74485;BMP280;62942;52.462;10.846;2023-01-16T00:25:52;99050;;;
74485;BMP280;62942;52.462;10.846;2023-01-16T00:26:52;99050;;;
74485;BMP280;62942;52.462;10.846;2023-01-16T00:28:02;99050;;;
74485;BMP280;62942;52.462;10.846;2023-01-16T00:29:12;99050;;;
74485;BMP280;62942;52.462;10.846;2023-01-16T00:30:12;99050;;;
74485;BMP280;62942;52.462;10.846;2023-01-16T00:31:12;99040;;;
74485;BMP280;62942;52.462;10.846;2023-01-16T00:32:22;99040;;;
74485;BMP280;62942;52.462;10.846;2023-01-16T00:33:32;99040;;;
74485;BMP280;62942;52.462;10.846;2023-01-16T00:34:42;99040;;;
74485;BMP280;62942;52.462;10.846;2023-01-16T00:35:42;99040;;;
74485;BMP280;62942;52.462;10.846;2023-01-16T00:36:52;99040;;;
74485;BMP280;62942;52.462;10.846;2023-01-16T00:37:52;99040;;;
74485;BMP280;62942;52.462;10.846;2023-01-16T00:39:02;99030;;;
74485;BMP280;62942;52.462;10.846;2023-01-16T00:40:03;99040;;;
74485;BMP280;62942;52.462;10.846;2023-01-16T00:41:12;99040;;;
74485;BMP280;62942;52.462;10.846;2023-01-16T00:42:12;99040;;;
74485;BMP280;62942;52.462;10.846;2023-01-16T00:43:12;99040;;;
74485;BMP280;62942;52.462;10.846;2023-01-16T00:44:12;99040;;;
74485;BMP280;62942;52.462;10.846;2023-01-16T00:45:23;99030;;;
74485;BMP280;62942;52.462;10.846;2023-01-16T00:46:22;99040;;;
74485;BMP280;62942;52.462;10.846;2023-01-16T00:47:32;99040;;;
74485;BMP280;62942;52.462;10.846;2023-01-16T00:48:42;99040;;;
74485;BMP280;62942;52.462;10.846;2023-01-16T00:49:52;99030;;;
74485;BMP280;62942;52.462;10.846;2023-01-16T00:50:52;99040;;;
74485;BMP280;62942;52.462;10.846;2023-01-16T00:52:03;99050;;;
74485;BMP280;62942;52.462;10.846;2023-01-16T00:53:02;99050;;;
74485;BMP280;62942;52.462;10.846;2023-01-16T00:54:12;99040;;;
74485;BMP280;62942;52.462;10.846;2023-01-16T00:55:22;99040;;;
74485;BMP280;62942;52.462;10.846;2023-01-16T00:56:22;99040;;;
74485;BMP280;62942;52.462;10.846;2023-01-16T00:57:22;99040;;;
74485;BMP280;62942;52.462;10.846;2023-01-16T00:58:32;99040;;;
74485;BMP280;62942;52.462;10.846;2023-01-16T00:59:32;99040;;;
74485;BMP280;62942;52.462;10.846;2023-01-16T01:00:42;99040;;;
74485;BMP280;62942;52.462;10.846;2023-01-16T01:01:52;99050;;;
74485;BMP280;62942;52.462;10.846;2023-01-16T01:03:02;99040;;;
74485;BMP280;62942;52.462;10.846;2023-01-16T01:04:02;99050;;;
74485;BMP280;62942;52.462;10.846;2023-01-16T01:05:12;99040;;;
74485;BMP280;62942;52.462;10.846;2023-01-16T01:06:12;99040;;;
74485;BMP280;62942;52.462;10.846;2023-01-16T01:07:22;99040;;;
74485;BMP280;62942;52.462;10.846;2023-01-16T01:08:32;99050;;;
74485;BMP280;62942;52.462;10.846;2023-01-16T01:09:42;99050;;;
74485;BMP280;62942;52.462;10.846;2023-01-16T01:10:52;99040;;;
74485;BMP280;62942;52.462;10.846;2023-01-16T01:11:52;99050;;;
74485;BMP280;62942;52.462;10.846;2023-01-16T01:13:02;99040;;;
74485;BMP280;62942;52.462;10.846;2023-01-16T01:14:02;99040;;;
74485;BMP280;62942;52.462;10.846;2023-01-16T01:15:02;99040;;;
74485;BMP280;62942;52.462;10.846;2023-01-16T01:16:02;99040;;;
74485;BMP280;62942;52.462;10.846;2023-01-16T01:17:12;99040;;;
74485;BMP280;62942;52.462;10.846;2023-01-16T01:18:22;99040;;;
74485;BMP280;62942;52.462;10.846;2023-01-16T01:19:32;99040;;;
74485;BMP280;62942;52.462;10.846;2023-01-16T01:20:32;99040;;;
74485;BMP280;62942;52.462;10.846;2023-01-16T01:21:42;99040;;;
74485;BMP280;62942;52.462;10.846;2023-01-16T01:22:52;99030;;;
74485;BMP280;62942;52.462;10.846;2023-01-16T01:24:02;99030;;;
74485;BMP280;62942;52.462;10.846;2023-01-16T01:25:02;99030;;;
74485;BMP280;62942;52.462;10.846;2023-01-16T01:26:06;99030;;;
74485;BMP280;62942;52.462;10.846;2023-01-16T01:27:12;99030;;;
74485;BMP280;62942;52.462;10.846;2023-01-16T01:28:22;99020;;;
74485;BMP280;62942;52.462;10.846;2023-01-16T01:29:32;99020;;;
74485;BMP280;62942;52.462;10.846;2023-01-16T01:30:42;99020;;;
74485;BMP280;62942;52.462;10.846;2023-01-16T01:31:42;99020;;;
74485;BMP280;62942;52.462;10.846;2023-01-16T01:32:42;99010;;;
74485;BMP280;62942;52.462;10.846;2023-01-16T01:33:52;99000;;;
74485;BMP280;62942;52.462;10.846;2023-01-16T01:35:03;99020;;;
74485;BMP280;62942;52.462;10.846;2023-01-16T01:36:02;99010;;;
74485;BMP280;62942;52.462;10.846;2023-01-16T01:37:12;99010;;;
74485;BMP280;62942;52.462;10.846;2023-01-16T01:38:12;99000;;;
74485;BMP280;62942;52.462;10.846;2023-01-16T01:39:22;99010;;;
74485;BMP280;62942;52.462;10.846;2023-01-16T01:40:32;99000;;;
74485;BMP280;62942;52.462;10.846;2023-01-16T01:41:42;99000;;;
74485;BMP280;62942;52.462;10.846;2023-01-16T01:42:52;99000;;;
74485;BMP280;62942;52.462;10.846;2023-01-16T01:44:39;99000;;;
74485;BMP280;62942;52.462;10.846;2023-01-16T01:45:14;98990;;;
74485;BMP280;62942;52.462;10.846;2023-01-16T01:46:23;98990;;;
74485;BMP280;62942;52.462;10.846;2023-01-16T01:47:34;98990;;;
74485;BMP280;62942;52.462;10.846;2023-01-16T01:48:34;98990;;;
74485;BMP280;62942;52.462;10.846;2023-01-16T01:49:38;98990;;;
74485;BMP280;62942;52.462;10.846;2023-01-16T01:50:43;98990;;;
74485;BMP280;62942;52.462;10.846;2023-01-16T01:51:42;98990;;;
74485;BMP280;62942;52.462;10.846;2023-01-16T01:52:42;98980;;;
74485;BMP280;62942;52.462;10.846;2023-01-16T01:53:53;98980;;;
74485;BMP280;62942;52.462;10.846;2023-01-16T01:54:53;98980;;;
74485;BMP280;62942;52.462;10.846;2023-01-16T01:56:03;98970;;;
74485;BMP280;62942;52.462;10.846;2023-01-16T01:57:03;98970;;;
74485;BMP280;62942;52.462;10.846;2023-01-16T01:58:02;98970;;;
74485;BMP280;62942;52.462;10.846;2023-01-16T01:59:14;98970;;;
74485;BMP280;62942;52.462;10.846;2023-01-16T02:00:23;98970;;;
74485;BMP280;62942;52.462;10.846;2023-01-16T02:01:22;98970;;;
74485;BMP280;62942;52.462;10.846;2023-01-16T02:02:33;98960;;;
74485;BMP280;62942;52.462;10.846;2023-01-16T02:03:32;98960;;;
74485;BMP280;62942;52.462;10.846;2023-01-16T02:04:34;98960;;;
74485;BMP280;62942;52.462;10.846;2023-01-16T02:05:43;98960;;;
74485;BMP280;62942;52.462;10.846;2023-01-16T02:06:53;98960;;;
74485;BMP280;62942;52.462;10.846;2023-01-16T02:08:02;98960;;;
74485;BMP280;62942;52.462;10.846;2023-01-16T02:09:02;98950;;;
74485;BMP280;62942;52.462;10.846;2023-01-16T02:10:13;98960;;;
74485;BMP280;62942;52.462;10.846;2023-01-16T02:11:23;98960;;;
74485;BMP280;62942;52.462;10.846;2023-01-16T02:12:32;98960;;;
74485;BMP280;62942;52.462;10.846;2023-01-16T02:13:32;98960;;;
74485;BMP280;62942;52.462;10.846;2023-01-16T02:14:33;98950;;;
74485;BMP280;62942;52.462;10.846;2023-01-16T02:15:42;98960;;;
74485;BMP280;62942;52.462;10.846;2023-01-16T02:16:42;98950;;;
74485;BMP280;62942;52.462;10.846;2023-01-16T02:17:43;98950;;;
74485;BMP280;62942;52.462;10.846;2023-01-16T02:18:42;98950;;;
74485;BMP280;62942;52.462;10.846;2023-01-16T02:19:54;98950;;;
74485;BMP280;62942;52.462;10.846;2023-01-16T02:20:55;98950;;;
74485;BMP280;62942;52.462;10.846;2023-01-16T02:22:12;98950;;;
74485;BMP280;62942;52.462;10.846;2023-01-16T02:24:17;98940;;;
74485;BMP280;62942;52.462;10.846;2023-01-16T02:24:23;98940;;;
74485;BMP280;62942;52.462;10.846;2023-01-16T02:25:24;98950;;;
74485;BMP280;62942;52.462;10.846;2023-01-16T02:26:18;98940;;;
74485;BMP280;62942;52.462;10.846;2023-01-16T02:27:27;98940;;;
74485;BMP280;62942;52.462;10.846;2023-01-16T02:28:28;98940;;;
74485;BMP280;62942;52.462;10.846;2023-01-16T02:29:48;98940;;;
74485;BMP280;62942;52.462;10.846;2023-01-16T02:30:26;98940;;;
74485;BMP280;62942;52.462;10.846;2023-01-16T02:31:33;98940;;;
74485;BMP280;62942;52.462;10.846;2023-01-16T02:32:45;98940;;;
74485;BMP280;62942;52.462;10.846;2023-01-16T02:33:56;98940;;;
74485;BMP280;62942;52.462;10.846;2023-01-16T02:34:57;98930;;;
74485;BMP280;62942;52.462;10.846;2023-01-16T02:36:03;98930;;;
74485;BMP280;62942;52.462;10.846;2023-01-16T02:37:14;98910;;;
74485;BMP280;62942;52.462;10.846;2023-01-16T02:38:26;98910;;;
74485;BMP280;62942;52.462;10.846;2023-01-16T02:39:34;98910;;;
74485;BMP280;62942;52.462;10.846;2023-01-16T02:40:43;98910;;;
74485;BMP280;62942;52.462;10.846;2023-01-16T02:41:53;98900;;;
74485;BMP280;62942;52.462;10.846;2023-01-16T02:43:06;98900;;;
74485;BMP280;62942;52.462;10.846;2023-01-16T02:44:03;98900;;;
74485;BMP280;62942;52.462;10.846;2023-01-16T02:45:03;98900;;;
74485;BMP280;62942;52.462;10.846;2023-01-16T02:46:15;98900;;;
74485;BMP280;62942;52.462;10.846;2023-01-16T02:47:14;98890;;;
74485;BMP280;62942;52.462;10.846;2023-01-16T02:48:13;98890;;;
74485;BMP280;62942;52.462;10.846;2023-01-16T02:49:14;98900;;;
74485;BMP280;62942;52.462;10.846;2023-01-16T02:50:22;98900;;;
74485;BMP280;62942;52.462;10.846;2023-01-16T02:51:23;98900;;;
74485;BMP280;62942;52.462;10.846;2023-01-16T02:52:33;98880;;;
74485;BMP280;62942;52.462;10.846;2023-01-16T02:53:34;98880;;;
74485;BMP280;62942;52.462;10.846;2023-01-16T02:54:44;98890;;;
74485;BMP280;62942;52.462;10.846;2023-01-16T02:55:43;98900;;;
74485;BMP280;62942;52.462;10.846;2023-01-16T02:56:53;98890;;;
74485;BMP280;62942;52.462;10.846;2023-01-16T02:57:53;98880;;;
74485;BMP280;62942;52.462;10.846;2023-01-16T02:58:52;98890;;;
74485;BMP280;62942;52.462;10.846;2023-01-16T03:00:03;98880;;;
74485;BMP280;62942;52.462;10.846;2023-01-16T03:01:02;98880;;;
74485;BMP280;62942;52.462;10.846;2023-01-16T03:02:12;98880;;;
74485;BMP280;62942;52.462;10.846;2023-01-16T03:03:17;98880;;;
74485;BMP280;62942;52.462;10.846;2023-01-16T03:04:55;98880;;;
74485;BMP280;62942;52.462;10.846;2023-01-16T03:05:35;98880;;;
74485;BMP280;62942;52.462;10.846;2023-01-16T03:06:43;98870;;;
74485;BMP280;62942;52.462;10.846;2023-01-16T03:07:57;98870;;;
74485;BMP280;62942;52.462;10.846;2023-01-16T03:08:54;98870;;;
74485;BMP280;62942;52.462;10.846;2023-01-16T03:09:55;98870;;;
74485;BMP280;62942;52.462;10.846;2023-01-16T03:11:09;98860;;;
74485;BMP280;62942;52.462;10.846;2023-01-16T03:12:07;98860;;;
74485;BMP280;62942;52.462;10.846;2023-01-16T03:13:05;98860;;;
74485;BMP280;62942;52.462;10.846;2023-01-16T03:14:18;98860;;;
74485;BMP280;62942;52.462;10.846;2023-01-16T03:15:24;98850;;;
74485;BMP280;62942;52.462;10.846;2023-01-16T03:16:25;98850;;;
74485;BMP280;62942;52.462;10.846;2023-01-16T03:17:27;98850;;;
74485;BMP280;62942;52.462;10.846;2023-01-16T03:18:34;98850;;;
74485;BMP280;62942;52.462;10.846;2023-01-16T03:19:36;98850;;;
74485;BMP280;62942;52.462;10.846;2023-01-16T03:20:46;98850;;;
74485;BMP280;62942;52.462;10.846;2023-01-16T03:21:46;98850;;;
74485;BMP280;62942;52.462;10.846;2023-01-16T03:22:43;98850;;;
74485;BMP280;62942;52.462;10.846;2023-01-16T03:23:52;98850;;;
74485;BMP280;62942;52.462;10.846;2023-01-16T03:24:57;98840;;;
74485;BMP280;62942;52.462;10.846;2023-01-16T03:25:53;98850;;;
74485;BMP280;62942;52.462;10.846;2023-01-16T03:27:05;98850;;;
74485;BMP280;62942;52.462;10.846;2023-01-16T03:28:13;98840;;;
74485;BMP280;62942;52.462;10.846;2023-01-16T03:29:14;98850;;;
74485;BMP280;62942;52.462;10.846;2023-01-16T03:30:14;98840;;;
74485;BMP280;62942;52.462;10.846;2023-01-16T03:31:25;98830;;;
74485;BMP280;62942;52.462;10.846;2023-01-16T03:32:24;98840;;;
74485;BMP280;62942;52.462;10.846;2023-01-16T03:33:33;98830;;;
74485;BMP280;62942;52.462;10.846;2023-01-16T03:34:33;98840;;;
74485;BMP280;62942;52.462;10.846;2023-01-16T03:35:43;98830;;;
74485;BMP280;62942;52.462;10.846;2023-01-16T03:36:53;98830;;;
74485;BMP280;62942;52.462;10.846;2023-01-16T03:38:03;98830;;;
74485;BMP280;62942;52.462;10.846;2023-01-16T03:39:02;98820;;;
74485;BMP280;62942;52.462;10.846;2023-01-16T03:40:03;98830;;;
74485;BMP280;62942;52.462;10.846;2023-01-16T03:41:13;98820;;;
74485;BMP280;62942;52.462;10.846;2023-01-16T03:42:13;98820;;;
74485;BMP280;62942;52.462;10.846;2023-01-16T03:43:13;98820;;;
74485;BMP280;62942;52.462;10.846;2023-01-16T03:44:13;98820;;;
74485;BMP280;62942;52.462;10.846;2023-01-16T03:45:24;98810;;;
74485;BMP280;62942;52.462;10.846;2023-01-16T03:46:32;98810;;;
74485;BMP280;62942;52.462;10.846;2023-01-16T03:47:43;98810;;;
74485;BMP280;62942;52.462;10.846;2023-01-16T03:48:53;98820;;;
74485;BMP280;62942;52.462;10.846;2023-01-16T03:50:03;98810;;;
74485;BMP280;62942;52.462;10.846;2023-01-16T03:51:13;98810;;;
74485;BMP280;62942;52.462;10.846;2023-01-16T03:52:22;98810;;;
74485;BMP280;62942;52.462;10.846;2023-01-16T03:53:23;98810;;;
74485;BMP280;62942;52.462;10.846;2023-01-16T03:54:34;98810;;;
74485;BMP280;62942;52.462;10.846;2023-01-16T03:55:43;98810;;;
74485;BMP280;62942;52.462;10.846;2023-01-16T03:56:43;98810;;;
74485;BMP280;62942;52.462;10.846;2023-01-16T03:57:44;98800;;;
74485;BMP280;62942;52.462;10.846;2023-01-16T03:58:52;98800;;;
74485;BMP280;62942;52.462;10.846;2023-01-16T03:59:52;98800;;;
74485;BMP280;62942;52.462;10.846;2023-01-16T04:00:54;98800;;;
74485;BMP280;62942;52.462;10.846;2023-01-16T04:01:53;98800;;;
74485;BMP280;62942;52.462;10.846;2023-01-16T04:03:03;98800;;;
74485;BMP280;62942;52.462;10.846;2023-01-16T04:04:14;98800;;;
74485;BMP280;62942;52.462;10.846;2023-01-16T04:05:13;98800;;;
74485;BMP280;62942;52.462;10.846;2023-01-16T04:06:23;98800;;;
74485;BMP280;62942;52.462;10.846;2023-01-16T04:07:24;98800;;;
74485;BMP280;62942;52.462;10.846;2023-01-16T04:08:23;98800;;;
74485;BMP280;62942;52.462;10.846;2023-01-16T04:09:34;98800;;;
74485;BMP280;62942;52.462;10.846;2023-01-16T04:10:42;98790;;;
74485;BMP280;62942;52.462;10.846;2023-01-16T04:11:42;98800;;;
74485;BMP280;62942;52.462;10.846;2023-01-16T04:12:53;98790;;;
74485;BMP280;62942;52.462;10.846;2023-01-16T04:14:02;98790;;;
74485;BMP280;62942;52.462;10.846;2023-01-16T04:15:03;98780;;;
74485;BMP280;62942;52.462;10.846;2023-01-16T04:16:03;98790;;;
74485;BMP280;62942;52.462;10.846;2023-01-16T04:17:12;98780;;;
74485;BMP280;62942;52.462;10.846;2023-01-16T04:18:12;98770;;;
74485;BMP280;62942;52.462;10.846;2023-01-16T04:19:12;98770;;;
74485;BMP280;62942;52.462;10.846;2023-01-16T04:20:22;98770;;;
74485;BMP280;62942;52.462;10.846;2023-01-16T04:21:24;98770;;;
74485;BMP280;62942;52.462;10.846;2023-01-16T04:22:23;98770;;;
74485;BMP280;62942;52.462;10.846;2023-01-16T04:23:32;98760;;;
74485;BMP280;62942;52.462;10.846;2023-01-16T04:24:32;98760;;;
74485;BMP280;62942;52.462;10.846;2023-01-16T04:25:32;98760;;;
74485;BMP280;62942;52.462;10.846;2023-01-16T04:26:42;98760;;;
74485;BMP280;62942;52.462;10.846;2023-01-16T04:27:42;98760;;;
74485;BMP280;62942;52.462;10.846;2023-01-16T04:28:52;98770;;;
74485;BMP280;62942;52.462;10.846;2023-01-16T04:29:52;98770;;;
74485;BMP280;62942;52.462;10.846;2023-01-16T04:30:52;98770;;;
74485;BMP280;62942;52.462;10.846;2023-01-16T04:32:02;98750;;;
74485;BMP280;62942;52.462;10.846;2023-01-16T04:33:02;98750;;;
74485;BMP280;62942;52.462;10.846;2023-01-16T04:34:12;98740;;;
74485;BMP280;62942;52.462;10.846;2023-01-16T04:35:12;98740;;;
74485;BMP280;62942;52.462;10.846;2023-01-16T04:36:12;98730;;;
74485;BMP280;62942;52.462;10.846;2023-01-16T04:37:22;98730;;;
74485;BMP280;62942;52.462;10.846;2023-01-16T04:38:22;98730;;;
74485;BMP280;62942;52.462;10.846;2023-01-16T04:39:22;98730;;;
74485;BMP280;62942;52.462;10.846;2023-01-16T04:40:22;98720;;;
74485;BMP280;62942;52.462;10.846;2023-01-16T04:41:32;98720;;;
74485;BMP280;62942;52.462;10.846;2023-01-16T04:42:32;98720;;;
74485;BMP280;62942;52.462;10.846;2023-01-16T04:43:42;98720;;;
74485;BMP280;62942;52.462;10.846;2023-01-16T04:44:42;98710;;;
74485;BMP280;62942;52.462;10.846;2023-01-16T04:45:52;98730;;;
74485;BMP280;62942;52.462;10.846;2023-01-16T04:47:02;98730;;;
74485;BMP280;62942;52.462;10.846;2023-01-16T04:48:02;98730;;;
74485;BMP280;62942;52.462;10.846;2023-01-16T04:49:12;98730;;;
74485;BMP280;62942;52.462;10.846;2023-01-16T04:50:12;98730;;;
74485;BMP280;62942;52.462;10.846;2023-01-16T04:51:22;98730;;;
74485;BMP280;62942;52.462;10.846;2023-01-16T04:52:32;98730;;;
74485;BMP280;62942;52.462;10.846;2023-01-16T04:53:32;98730;;;
74485;BMP280;62942;52.462;10.846;2023-01-16T04:54:32;98730;;;
74485;BMP280;62942;52.462;10.846;2023-01-16T04:55:32;98730;;;
74485;BMP280;62942;52.462;10.846;2023-01-16T04:56:42;98720;;;
74485;BMP280;62942;52.462;10.846;2023-01-16T04:57:42;98730;;;
74485;BMP280;62942;52.462;10.846;2023-01-16T04:58:52;98710;;;
74485;BMP280;62942;52.462;10.846;2023-01-16T05:00:02;98710;;;
74485;BMP280;62942;52.462;10.846;2023-01-16T05:01:12;98710;;;
74485;BMP280;62942;52.462;10.846;2023-01-16T05:02:12;98700;;;
74485;BMP280;62942;52.462;10.846;2023-01-16T05:03:22;98710;;;
74485;BMP280;62942;52.462;10.846;2023-01-16T05:04:22;98710;;;
74485;BMP280;62942;52.462;10.846;2023-01-16T05:05:32;98710;;;
74485;BMP280;62942;52.462;10.846;2023-01-16T05:06:32;98710;;;
74485;BMP280;62942;52.462;10.846;2023-01-16T05:07:42;98710;;;
74485;BMP280;62942;52.462;10.846;2023-01-16T05:08:52;98700;;;
74485;BMP280;62942;52.462;10.846;2023-01-16T05:10:02;98700;;;
74485;BMP280;62942;52.462;10.846;2023-01-16T05:11:12;98700;;;
74485;BMP280;62942;52.462;10.846;2023-01-16T05:12:22;98710;;;
74485;BMP280;62942;52.462;10.846;2023-01-16T05:13:32;98700;;;
74485;BMP280;62942;52.462;10.846;2023-01-16T05:14:42;98700;;;
74485;BMP280;62942;52.462;10.846;2023-01-16T05:15:52;98700;;;
74485;BMP280;62942;52.462;10.846;2023-01-16T05:17:02;98700;;;
74485;BMP280;62942;52.462;10.846;2023-01-16T05:18:12;98700;;;
74485;BMP280;62942;52.462;10.846;2023-01-16T05:19:12;98680;;;
74485;BMP280;62942;52.462;10.846;2023-01-16T05:20:22;98700;;;
74485;BMP280;62942;52.462;10.846;2023-01-16T05:21:32;98690;;;
74485;BMP280;62942;52.462;10.846;2023-01-16T05:22:42;98700;;;
74485;BMP280;62942;52.462;10.846;2023-01-16T05:23:52;98690;;;
74485;BMP280;62942;52.462;10.846;2023-01-16T05:25:02;98700;;;
74485;BMP280;62942;52.462;10.846;2023-01-16T05:26:12;98690;;;
74485;BMP280;62942;52.462;10.846;2023-01-16T05:27:22;98690;;;
74485;BMP280;62942;52.462;10.846;2023-01-16T05:28:32;98680;;;
74485;BMP280;62942;52.462;10.846;2023-01-16T05:29:36;98680;;;
74485;BMP280;62942;52.462;10.846;2023-01-16T05:30:42;98680;;;
74485;BMP280;62942;52.462;10.846;2023-01-16T05:31:42;98670;;;
74485;BMP280;62942;52.462;10.846;2023-01-16T05:32:42;98670;;;
74485;BMP280;62942;52.462;10.846;2023-01-16T05:33:42;98670;;;
74485;BMP280;62942;52.462;10.846;2023-01-16T05:34:52;98650;;;
74485;BMP280;62942;52.462;10.846;2023-01-16T05:36:02;98670;;;
74485;BMP280;62942;52.462;10.846;2023-01-16T05:37:02;98670;;;
74485;BMP280;62942;52.462;10.846;2023-01-16T05:38:12;98670;;;
74485;BMP280;62942;52.462;10.846;2023-01-16T05:39:22;98670;;;
74485;BMP280;62942;52.462;10.846;2023-01-16T05:40:32;98670;;;
74485;BMP280;62942;52.462;10.846;2023-01-16T05:41:32;98660;;;
74485;BMP280;62942;52.462;10.846;2023-01-16T05:42:42;98660;;;
74485;BMP280;62942;52.462;10.846;2023-01-16T05:43:42;98660;;;
74485;BMP280;62942;52.462;10.846;2023-01-16T05:44:52;98650;;;
74485;BMP280;62942;52.462;10.846;2023-01-16T05:45:52;98650;;;
74485;BMP280;62942;52.462;10.846;2023-01-16T05:46:52;98650;;;
74485;BMP280;62942;52.462;10.846;2023-01-16T05:48:02;98640;;;
74485;BMP280;62942;52.462;10.846;2023-01-16T05:49:02;98650;;;
74485;BMP280;62942;52.462;10.846;2023-01-16T05:50:02;98650;;;
74485;BMP280;62942;52.462;10.846;2023-01-16T05:51:12;98640;;;
74485;BMP280;62942;52.462;10.846;2023-01-16T05:52:22;98650;;;
74485;BMP280;62942;52.462;10.846;2023-01-16T05:53:32;98640;;;
74485;BMP280;62942;52.462;10.846;2023-01-16T05:54:32;98650;;;
74485;BMP280;62942;52.462;10.846;2023-01-16T05:55:42;98640;;;
74485;BMP280;62942;52.462;10.846;2023-01-16T05:56:52;98650;;;
74485;BMP280;62942;52.462;10.846;2023-01-16T05:58:02;98640;;;
74485;BMP280;62942;52.462;10.846;2023-01-16T05:59:02;98640;;;
74485;BMP280;62942;52.462;10.846;2023-01-16T06:00:12;98640;;;
74485;BMP280;62942;52.462;10.846;2023-01-16T06:01:22;98650;;;
74485;BMP280;62942;52.462;10.846;2023-01-16T06:02:22;98640;;;
74485;BMP280;62942;52.462;10.846;2023-01-16T06:03:22;98640;;;
74485;BMP280;62942;52.462;10.846;2023-01-16T06:04:32;98640;;;
74485;BMP280;62942;52.462;10.846;2023-01-16T06:05:42;98640;;;
74485;BMP280;62942;52.462;10.846;2023-01-16T06:06:52;98650;;;
74485;BMP280;62942;52.462;10.846;2023-01-16T06:08:02;98640;;;
74485;BMP280;62942;52.462;10.846;2023-01-16T06:09:12;98640;;;
74485;BMP280;62942;52.462;10.846;2023-01-16T06:10:12;98640;;;
74485;BMP280;62942;52.462;10.846;2023-01-16T06:11:12;98640;;;
74485;BMP280;62942;52.462;10.846;2023-01-16T06:12:22;98640;;;
74485;BMP280;62942;52.462;10.846;2023-01-16T06:13:36;98640;;;
74485;BMP280;62942;52.462;10.846;2023-01-16T06:14:42;98640;;;
74485;BMP280;62942;52.462;10.846;2023-01-16T06:15:42;98640;;;
74485;BMP280;62942;52.462;10.846;2023-01-16T06:16:52;98640;;;
74485;BMP280;62942;52.462;10.846;2023-01-16T06:17:52;98640;;;
74485;BMP280;62942;52.462;10.846;2023-01-16T06:19:02;98630;;;
74485;BMP280;62942;52.462;10.846;2023-01-16T06:20:02;98630;;;
74485;BMP280;62942;52.462;10.846;2023-01-16T06:21:12;98630;;;
74485;BMP280;62942;52.462;10.846;2023-01-16T06:22:12;98630;;;
74485;BMP280;62942;52.462;10.846;2023-01-16T06:23:12;98640;;;
74485;BMP280;62942;52.462;10.846;2023-01-16T06:24:22;98630;;;
74485;BMP280;62942;52.462;10.846;2023-01-16T06:25:32;98630;;;
74485;BMP280;62942;52.462;10.846;2023-01-16T06:26:32;98630;;;
74485;BMP280;62942;52.462;10.846;2023-01-16T06:27:42;98620;;;
74485;BMP280;62942;52.462;10.846;2023-01-16T06:28:52;98620;;;
74485;BMP280;62942;52.462;10.846;2023-01-16T06:29:52;98620;;;
74485;BMP280;62942;52.462;10.846;2023-01-16T06:31:02;98610;;;
74485;BMP280;62942;52.462;10.846;2023-01-16T06:32:12;98610;;;
74485;BMP280;62942;52.462;10.846;2023-01-16T06:33:22;98610;;;
74485;BMP280;62942;52.462;10.846;2023-01-16T06:34:22;98610;;;
74485;BMP280;62942;52.462;10.846;2023-01-16T06:35:33;98610;;;
74485;BMP280;62942;52.462;10.846;2023-01-16T06:36:42;98610;;;
74485;BMP280;62942;52.462;10.846;2023-01-16T06:37:52;98600;;;
74485;BMP280;62942;52.462;10.846;2023-01-16T06:38:52;98600;;;
74485;BMP280;62942;52.462;10.846;2023-01-16T06:40:02;98600;;;
74485;BMP280;62942;52.462;10.846;2023-01-16T06:41:02;98600;;;
74485;BMP280;62942;52.462;10.846;2023-01-16T06:42:12;98600;;;
74485;BMP280;62942;52.462;10.846;2023-01-16T06:43:22;98600;;;
74485;BMP280;62942;52.462;10.846;2023-01-16T06:44:32;98600;;;
74485;BMP280;62942;52.462;10.846;2023-01-16T06:45:42;98600;;;
74485;BMP280;62942;52.462;10.846;2023-01-16T06:46:42;98600;;;
74485;BMP280;62942;52.462;10.846;2023-01-16T06:47:52;98590;;;
74485;BMP280;62942;52.462;10.846;2023-01-16T06:49:02;98590;;;
74485;BMP280;62942;52.462;10.846;2023-01-16T06:50:02;98590;;;
74485;BMP280;62942;52.462;10.846;2023-01-16T06:51:12;98590;;;
74485;BMP280;62942;52.462;10.846;2023-01-16T06:52:12;98590;;;
74485;BMP280;62942;52.462;10.846;2023-01-16T06:53:12;98590;;;
74485;BMP280;62942;52.462;10.846;2023-01-16T06:54:22;98580;;;
74485;BMP280;62942;52.462;10.846;2023-01-16T06:55:32;98590;;;
74485;BMP280;62942;52.462;10.846;2023-01-16T06:56:32;98580;;;
74485;BMP280;62942;52.462;10.846;2023-01-16T06:57:33;98580;;;
74485;BMP280;62942;52.462;10.846;2023-01-16T06:58:42;98580;;;
74485;BMP280;62942;52.462;10.846;2023-01-16T06:59:52;98580;;;